QFA101 YMML-YSSY
Flight info
| Callsign | QFA101 |
|---|---|
| Flight time | 1h 18m |
| Altitude | 39000 |
| Route | DOSEL2/34 DOSEL Y59 TESAT |
| Aircraft | B38M/L-ICAO/S |
Departure
| Time | 2026-04-23 10:51 |
|---|---|
| Airport | Melbourne Airport (YMML) |
Arrival
| Time | 2026-04-23 12:09 |
|---|---|
| Airport | Sydney Kingsford Smith International Airport (YSSY) |
| Time | Latitude | Longitude | Altitude | Speed | Heading |
|---|---|---|---|---|---|
| 2026-04-23 10:06 | -37.66657 | 144.85251 | 338 ft | 0 kts | 261° |
| 2026-04-23 10:33 | -37.66657 | 144.85252 | 339 ft | 0 kts | 265° |
| 2026-04-23 10:34 | -37.66656 | 144.85252 | 339 ft | 2 kts | 272° |
| 2026-04-23 10:34 | -37.66657 | 144.85275 | 334 ft | 3 kts | 272° |
| 2026-04-23 10:34 | -37.66658 | 144.85298 | 337 ft | 3 kts | 272° |
| 2026-04-23 10:34 | -37.66659 | 144.85321 | 334 ft | 3 kts | 272° |
| 2026-04-23 10:35 | -37.66661 | 144.85343 | 334 ft | 3 kts | 314° |
| 2026-04-23 10:35 | -37.66672 | 144.85352 | 338 ft | 0 kts | 356° |
| 2026-04-23 10:39 | -37.66662 | 144.85352 | 336 ft | 4 kts | 356° |
| 2026-04-23 10:40 | -37.66621 | 144.85348 | 336 ft | 8 kts | 356° |
| 2026-04-23 10:40 | -37.66574 | 144.85308 | 337 ft | 10 kts | 292° |
| 2026-04-23 10:40 | -37.66576 | 144.85219 | 333 ft | 12 kts | 263° |
| 2026-04-23 10:40 | -37.66586 | 144.85109 | 336 ft | 13 kts | 264° |
| 2026-04-23 10:41 | -37.66559 | 144.85060 | 335 ft | 7 kts | 324° |
| 2026-04-23 10:41 | -37.66533 | 144.84996 | 331 ft | 10 kts | 268° |
| 2026-04-23 10:41 | -37.66542 | 144.84896 | 336 ft | 13 kts | 261° |
| 2026-04-23 10:41 | -37.66558 | 144.84830 | 334 ft | 4 kts | 237° |
| 2026-04-23 10:42 | -37.66582 | 144.84801 | 335 ft | 5 kts | 216° |
| 2026-04-23 10:42 | -37.66610 | 144.84780 | 333 ft | 3 kts | 218° |
| 2026-04-23 10:42 | -37.66625 | 144.84758 | 336 ft | 3 kts | 239° |
| 2026-04-23 10:42 | -37.66632 | 144.84740 | 337 ft | 1 kts | 248° |
| 2026-04-23 10:43 | -37.66638 | 144.84721 | 347 ft | 4 kts | 251° |
| 2026-04-23 10:43 | -37.66645 | 144.84671 | 349 ft | 8 kts | 259° |
| 2026-04-23 10:43 | -37.66654 | 144.84588 | 356 ft | 11 kts | 263° |
| 2026-04-23 10:43 | -37.66667 | 144.84481 | 358 ft | 12 kts | 263° |
| 2026-04-23 10:44 | -37.66679 | 144.84374 | 367 ft | 13 kts | 261° |
| 2026-04-23 10:44 | -37.66696 | 144.84253 | 373 ft | 15 kts | 256° |
| 2026-04-23 10:44 | -37.66773 | 144.84188 | 376 ft | 17 kts | 170° |
| 2026-04-23 10:44 | -37.66874 | 144.84207 | 375 ft | 15 kts | 169° |
| 2026-04-23 10:45 | -37.66978 | 144.84227 | 373 ft | 14 kts | 171° |
| 2026-04-23 10:45 | -37.67091 | 144.84252 | 371 ft | 20 kts | 168° |
| 2026-04-23 10:45 | -37.67228 | 144.84274 | 370 ft | 20 kts | 172° |
| 2026-04-23 10:45 | -37.67370 | 144.84301 | 365 ft | 20 kts | 172° |
| 2026-04-23 10:46 | -37.67519 | 144.84330 | 363 ft | 24 kts | 171° |
| 2026-04-23 10:46 | -37.67658 | 144.84354 | 360 ft | 19 kts | 178° |
| 2026-04-23 10:46 | -37.67784 | 144.84365 | 356 ft | 15 kts | 187° |
| 2026-04-23 10:46 | -37.67843 | 144.84300 | 359 ft | 13 kts | 240° |
| 2026-04-23 10:47 | -37.67864 | 144.84182 | 354 ft | 15 kts | 262° |
| 2026-04-23 10:47 | -37.67870 | 144.84126 | 359 ft | 0 kts | 261° |
| 2026-04-23 10:49 | -37.67872 | 144.84112 | 360 ft | 6 kts | 261° |
| 2026-04-23 10:49 | -37.67870 | 144.84030 | 359 ft | 11 kts | 292° |
| 2026-04-23 10:49 | -37.67832 | 144.83961 | 355 ft | 6 kts | 333° |
| 2026-04-23 10:49 | -37.67813 | 144.83956 | 358 ft | 5 kts | 348° |
| 2026-04-23 10:50 | -37.67744 | 144.83942 | 358 ft | 20 kts | 352° |
| 2026-04-23 10:50 | -37.67474 | 144.83891 | 369 ft | 66 kts | 352° |
| 2026-04-23 10:50 | -37.66781 | 144.83758 | 389 ft | 134 kts | 351° |
| 2026-04-23 10:50 | -37.65740 | 144.83581 | 769 ft | 151 kts | 354° |
| 2026-04-23 10:51 | -37.64712 | 144.83428 | 1364 ft | 145 kts | 353° |
| 2026-04-23 10:51 | -37.63692 | 144.83254 | 1818 ft | 152 kts | 353° |
| 2026-04-23 10:51 | -37.62599 | 144.83373 | 1995 ft | 173 kts | 34° |
| 2026-04-23 10:51 | -37.61953 | 144.84703 | 2201 ft | 193 kts | 79° |
| 2026-04-23 10:52 | -37.61777 | 144.86438 | 2419 ft | 206 kts | 80° |
| 2026-04-23 10:52 | -37.61387 | 144.88234 | 2616 ft | 217 kts | 68° |
| 2026-04-23 10:52 | -37.60682 | 144.89962 | 2767 ft | 226 kts | 55° |
| 2026-04-23 10:52 | -37.59370 | 144.91072 | 2868 ft | 238 kts | 15° |
| 2026-04-23 10:53 | -37.57704 | 144.90959 | 2948 ft | 246 kts | 347° |
| 2026-04-23 10:53 | -37.56609 | 144.90556 | 3077 ft | 249 kts | 343° |
| 2026-04-23 10:53 | -37.54921 | 144.89834 | 3836 ft | 262 kts | 342° |
| 2026-04-23 10:53 | -37.53156 | 144.89195 | 4822 ft | 266 kts | 349° |
| 2026-04-23 10:54 | -37.51312 | 144.88874 | 5827 ft | 268 kts | 358° |
| 2026-04-23 10:54 | -37.49441 | 144.88910 | 6827 ft | 270 kts | 7° |
| 2026-04-23 10:54 | -37.47575 | 144.89318 | 7762 ft | 273 kts | 17° |
| 2026-04-23 10:54 | -37.45802 | 144.90198 | 8683 ft | 276 kts | 27° |
| 2026-04-23 10:55 | -37.44112 | 144.91396 | 9600 ft | 281 kts | 35° |
| 2026-04-23 10:55 | -37.42740 | 144.93170 | 10239 ft | 286 kts | 53° |
| 2026-04-23 10:55 | -37.41605 | 144.95246 | 10384 ft | 288 kts | 56° |
| 2026-04-23 10:55 | -37.40465 | 144.97309 | 10384 ft | 286 kts | 54° |
| 2026-04-23 10:56 | -37.39293 | 144.99336 | 10392 ft | 286 kts | 53° |
| 2026-04-23 10:56 | -37.38114 | 145.01407 | 10529 ft | 306 kts | 54° |
| 2026-04-23 10:56 | -37.36858 | 145.03649 | 11131 ft | 320 kts | 54° |
| 2026-04-23 10:56 | -37.35554 | 145.05969 | 11886 ft | 328 kts | 54° |
| 2026-04-23 10:57 | -37.34219 | 145.08329 | 12667 ft | 335 kts | 54° |
| 2026-04-23 10:57 | -37.32853 | 145.10743 | 13482 ft | 341 kts | 55° |
| 2026-04-23 10:57 | -37.31469 | 145.13192 | 14281 ft | 346 kts | 55° |
| 2026-04-23 10:57 | -37.30063 | 145.15679 | 15003 ft | 351 kts | 55° |
| 2026-04-23 10:58 | -37.28638 | 145.18195 | 15732 ft | 356 kts | 55° |
| 2026-04-23 10:58 | -37.27189 | 145.20750 | 16445 ft | 361 kts | 55° |
| 2026-04-23 10:58 | -37.25717 | 145.23345 | 17155 ft | 366 kts | 55° |
| 2026-04-23 10:58 | -37.24232 | 145.25962 | 17864 ft | 371 kts | 55° |
| 2026-04-23 10:59 | -37.22728 | 145.28610 | 18565 ft | 375 kts | 55° |
| 2026-04-23 10:59 | -37.21202 | 145.31294 | 19180 ft | 380 kts | 56° |
| 2026-04-23 10:59 | -37.19679 | 145.33971 | 19770 ft | 384 kts | 56° |
| 2026-04-23 10:59 | -37.18100 | 145.36745 | 20372 ft | 388 kts | 56° |
| 2026-04-23 11:00 | -37.16541 | 145.39479 | 20965 ft | 391 kts | 56° |
| 2026-04-23 11:00 | -37.14946 | 145.42273 | 21562 ft | 395 kts | 56° |
| 2026-04-23 11:00 | -37.13334 | 145.45082 | 22148 ft | 399 kts | 56° |
| 2026-04-23 11:00 | -37.11704 | 145.47921 | 22727 ft | 402 kts | 56° |
| 2026-04-23 11:01 | -37.10080 | 145.50753 | 23301 ft | 406 kts | 56° |
| 2026-04-23 11:01 | -37.08400 | 145.53679 | 23887 ft | 410 kts | 56° |
| 2026-04-23 11:01 | -37.06749 | 145.56551 | 24365 ft | 413 kts | 56° |
| 2026-04-23 11:01 | -37.05059 | 145.59489 | 24827 ft | 417 kts | 56° |
| 2026-04-23 11:02 | -37.03357 | 145.62443 | 25278 ft | 420 kts | 56° |
| 2026-04-23 11:02 | -37.01638 | 145.65427 | 25721 ft | 424 kts | 57° |
| 2026-04-23 11:02 | -36.99903 | 145.68435 | 26174 ft | 427 kts | 57° |
| 2026-04-23 11:02 | -36.98150 | 145.71470 | 26604 ft | 430 kts | 57° |
| 2026-04-23 11:03 | -36.96412 | 145.74478 | 27020 ft | 434 kts | 57° |
| 2026-04-23 11:03 | -36.94636 | 145.77548 | 27443 ft | 437 kts | 57° |
| 2026-04-23 11:03 | -36.92847 | 145.80638 | 27875 ft | 440 kts | 57° |
| 2026-04-23 11:03 | -36.91040 | 145.83758 | 28290 ft | 443 kts | 57° |
| 2026-04-23 11:04 | -36.89225 | 145.86886 | 28691 ft | 446 kts | 57° |
| 2026-04-23 11:04 | -36.87397 | 145.90034 | 29084 ft | 449 kts | 57° |
| 2026-04-23 11:04 | -36.85553 | 145.93209 | 29480 ft | 452 kts | 57° |
| 2026-04-23 11:04 | -36.83693 | 145.96407 | 29869 ft | 455 kts | 57° |
| 2026-04-23 11:05 | -36.81845 | 145.99580 | 30234 ft | 458 kts | 57° |
| 2026-04-23 11:05 | -36.79965 | 146.02806 | 30594 ft | 461 kts | 57° |
| 2026-04-23 11:05 | -36.78069 | 146.06056 | 30915 ft | 464 kts | 58° |
| 2026-04-23 11:05 | -36.76157 | 146.09332 | 31222 ft | 467 kts | 58° |
| 2026-04-23 11:06 | -36.72309 | 146.15913 | 31835 ft | 472 kts | 58° |
| 2026-04-23 11:06 | -36.70368 | 146.19226 | 32145 ft | 475 kts | 58° |
| 2026-04-23 11:06 | -36.68418 | 146.22554 | 32441 ft | 477 kts | 58° |
| 2026-04-23 11:07 | -36.66456 | 146.25897 | 32815 ft | 477 kts | 58° |
| 2026-04-23 11:07 | -36.64493 | 146.29237 | 33255 ft | 476 kts | 58° |
| 2026-04-23 11:07 | -36.62536 | 146.32565 | 33705 ft | 476 kts | 59° |
| 2026-04-23 11:07 | -36.60579 | 146.35892 | 34137 ft | 475 kts | 59° |
| 2026-04-23 11:08 | -36.58653 | 146.39162 | 34533 ft | 474 kts | 59° |
| 2026-04-23 11:08 | -36.56705 | 146.42466 | 34883 ft | 474 kts | 59° |
| 2026-04-23 11:08 | -36.54755 | 146.45770 | 35225 ft | 473 kts | 59° |
| 2026-04-23 11:08 | -36.52808 | 146.49066 | 35571 ft | 473 kts | 59° |
| 2026-04-23 11:09 | -36.50857 | 146.52366 | 35904 ft | 472 kts | 59° |
| 2026-04-23 11:09 | -36.48909 | 146.55657 | 36232 ft | 472 kts | 59° |
| 2026-04-23 11:09 | -36.46955 | 146.58955 | 36525 ft | 473 kts | 59° |
| 2026-04-23 11:09 | -36.45003 | 146.62246 | 36816 ft | 473 kts | 59° |
| 2026-04-23 11:10 | -36.43045 | 146.65544 | 37107 ft | 473 kts | 59° |
| 2026-04-23 11:10 | -36.41091 | 146.68833 | 37400 ft | 474 kts | 59° |
| 2026-04-23 11:10 | -36.39131 | 146.72128 | 37668 ft | 474 kts | 59° |
| 2026-04-23 11:10 | -36.37196 | 146.75379 | 37930 ft | 475 kts | 59° |
| 2026-04-23 11:11 | -36.35231 | 146.78677 | 38185 ft | 475 kts | 59° |
| 2026-04-23 11:11 | -36.33263 | 146.81976 | 38432 ft | 476 kts | 59° |
| 2026-04-23 11:11 | -36.31295 | 146.85272 | 38716 ft | 476 kts | 59° |
| 2026-04-23 11:11 | -36.29322 | 146.88572 | 38968 ft | 476 kts | 59° |
| 2026-04-23 11:12 | -36.27344 | 146.91880 | 39185 ft | 477 kts | 59° |
| 2026-04-23 11:12 | -36.25366 | 146.95182 | 39381 ft | 477 kts | 58° |
| 2026-04-23 11:12 | -36.23395 | 146.98468 | 39420 ft | 471 kts | 58° |
| 2026-04-23 11:13 | -36.19530 | 147.04908 | 39432 ft | 465 kts | 59° |
| 2026-04-23 11:13 | -36.15665 | 147.11340 | 39450 ft | 466 kts | 58° |
| 2026-04-23 11:14 | -36.11786 | 147.17772 | 39440 ft | 466 kts | 58° |
| 2026-04-23 11:14 | -36.07914 | 147.24189 | 39439 ft | 465 kts | 58° |
| 2026-04-23 11:15 | -36.04032 | 147.30607 | 39439 ft | 466 kts | 58° |
| 2026-04-23 11:15 | -36.00144 | 147.37023 | 39437 ft | 466 kts | 58° |
| 2026-04-23 11:16 | -35.96283 | 147.43383 | 39450 ft | 466 kts | 58° |
| 2026-04-23 11:16 | -35.92371 | 147.49816 | 39452 ft | 466 kts | 58° |
| 2026-04-23 11:17 | -35.88505 | 147.56161 | 39454 ft | 465 kts | 58° |
| 2026-04-23 11:17 | -35.84613 | 147.62535 | 39461 ft | 465 kts | 58° |
| 2026-04-23 11:18 | -35.80720 | 147.68902 | 39464 ft | 464 kts | 58° |
| 2026-04-23 11:18 | -35.76827 | 147.75255 | 39468 ft | 464 kts | 58° |
| 2026-04-23 11:19 | -35.72924 | 147.81613 | 39472 ft | 465 kts | 58° |
| 2026-04-23 11:19 | -35.69016 | 147.87967 | 39482 ft | 466 kts | 58° |
| 2026-04-23 11:20 | -35.65093 | 147.94334 | 39475 ft | 466 kts | 58° |
| 2026-04-23 11:20 | -35.61186 | 148.00662 | 39474 ft | 464 kts | 58° |
| 2026-04-23 11:21 | -35.57308 | 148.06937 | 39486 ft | 464 kts | 58° |
| 2026-04-23 11:21 | -35.53392 | 148.13256 | 39483 ft | 465 kts | 58° |
| 2026-04-23 11:22 | -35.49469 | 148.19578 | 39492 ft | 465 kts | 58° |
| 2026-04-23 11:22 | -35.45543 | 148.25892 | 39508 ft | 464 kts | 58° |
| 2026-04-23 11:23 | -35.41630 | 148.32175 | 39497 ft | 463 kts | 58° |
| 2026-04-23 11:23 | -35.37714 | 148.38450 | 39503 ft | 463 kts | 58° |
| 2026-04-23 11:24 | -35.33794 | 148.44721 | 39501 ft | 464 kts | 57° |
| 2026-04-23 11:24 | -35.29867 | 148.50989 | 39508 ft | 463 kts | 57° |
| 2026-04-23 11:25 | -35.25974 | 148.57194 | 39497 ft | 462 kts | 57° |
| 2026-04-23 11:25 | -35.22061 | 148.63420 | 39505 ft | 462 kts | 57° |
| 2026-04-23 11:26 | -35.18128 | 148.69668 | 39503 ft | 462 kts | 57° |
| 2026-04-23 11:26 | -35.14194 | 148.75904 | 39518 ft | 463 kts | 57° |
| 2026-04-23 11:27 | -35.10257 | 148.82133 | 39498 ft | 462 kts | 57° |
| 2026-04-23 11:27 | -35.06327 | 148.88343 | 39497 ft | 462 kts | 57° |
| 2026-04-23 11:28 | -35.02390 | 148.94551 | 39497 ft | 463 kts | 57° |
| 2026-04-23 11:28 | -34.98440 | 149.00769 | 39507 ft | 464 kts | 57° |
| 2026-04-23 11:29 | -34.94511 | 149.06941 | 39500 ft | 461 kts | 56° |
| 2026-04-23 11:29 | -34.90581 | 149.13107 | 39502 ft | 461 kts | 56° |
| 2026-04-23 11:30 | -34.86635 | 149.19287 | 39503 ft | 461 kts | 56° |
| 2026-04-23 11:30 | -34.82685 | 149.25460 | 39433 ft | 461 kts | 56° |
| 2026-04-23 11:30 | -34.80710 | 149.28545 | 38938 ft | 463 kts | 56° |
| 2026-04-23 11:31 | -34.78725 | 149.31643 | 38289 ft | 464 kts | 56° |
| 2026-04-23 11:31 | -34.76738 | 149.34736 | 37673 ft | 463 kts | 56° |
| 2026-04-23 11:31 | -34.74761 | 149.37817 | 37050 ft | 462 kts | 58° |
| 2026-04-23 11:31 | -34.73053 | 149.41078 | 36410 ft | 456 kts | 65° |
| 2026-04-23 11:32 | -34.71565 | 149.44471 | 35761 ft | 454 kts | 68° |
| 2026-04-23 11:32 | -34.70158 | 149.47854 | 35120 ft | 454 kts | 68° |
| 2026-04-23 11:32 | -34.68694 | 149.51259 | 34461 ft | 454 kts | 66° |
| 2026-04-23 11:32 | -34.67187 | 149.54634 | 33758 ft | 453 kts | 66° |
| 2026-04-23 11:33 | -34.65700 | 149.57991 | 33122 ft | 450 kts | 66° |
| 2026-04-23 11:33 | -34.64250 | 149.61344 | 32485 ft | 447 kts | 65° |
| 2026-04-23 11:33 | -34.62805 | 149.64674 | 31838 ft | 444 kts | 64° |
| 2026-04-23 11:33 | -34.61355 | 149.67969 | 31198 ft | 441 kts | 64° |
| 2026-04-23 11:34 | -34.59912 | 149.71241 | 30565 ft | 438 kts | 64° |
| 2026-04-23 11:34 | -34.58487 | 149.74489 | 29905 ft | 434 kts | 64° |
| 2026-04-23 11:34 | -34.57077 | 149.77707 | 29283 ft | 429 kts | 64° |
| 2026-04-23 11:34 | -34.55696 | 149.80847 | 28679 ft | 424 kts | 64° |
| 2026-04-23 11:35 | -34.54294 | 149.84025 | 28067 ft | 420 kts | 64° |
| 2026-04-23 11:35 | -34.52941 | 149.87093 | 27474 ft | 415 kts | 64° |
| 2026-04-23 11:35 | -34.51588 | 149.90166 | 26885 ft | 412 kts | 63° |
| 2026-04-23 11:35 | -34.50242 | 149.93215 | 26299 ft | 408 kts | 63° |
| 2026-04-23 11:36 | -34.48906 | 149.96236 | 25738 ft | 404 kts | 63° |
| 2026-04-23 11:36 | -34.47594 | 149.99200 | 25512 ft | 392 kts | 63° |
| 2026-04-23 11:36 | -34.46332 | 150.02048 | 25507 ft | 374 kts | 63° |
| 2026-04-23 11:36 | -34.45113 | 150.04800 | 25500 ft | 372 kts | 63° |
| 2026-04-23 11:37 | -34.43884 | 150.07578 | 25482 ft | 373 kts | 63° |
| 2026-04-23 11:37 | -34.43069 | 150.09415 | 25413 ft | 373 kts | 63° |
| 2026-04-23 11:37 | -34.41844 | 150.12170 | 25502 ft | 374 kts | 63° |
| 2026-04-23 11:37 | -34.40611 | 150.14945 | 25503 ft | 373 kts | 63° |
| 2026-04-23 11:38 | -34.39381 | 150.17711 | 25454 ft | 372 kts | 63° |
| 2026-04-23 11:38 | -34.38151 | 150.20474 | 25114 ft | 371 kts | 63° |
| 2026-04-23 11:38 | -34.36926 | 150.23224 | 24650 ft | 370 kts | 63° |
| 2026-04-23 11:38 | -34.35707 | 150.25958 | 24196 ft | 368 kts | 63° |
| 2026-04-23 11:39 | -34.34494 | 150.28676 | 23689 ft | 366 kts | 63° |
| 2026-04-23 11:39 | -34.33285 | 150.31383 | 23160 ft | 364 kts | 64° |
| 2026-04-23 11:39 | -34.32084 | 150.34071 | 22651 ft | 362 kts | 64° |
| 2026-04-23 11:39 | -34.30906 | 150.36705 | 22168 ft | 360 kts | 64° |
| 2026-04-23 11:40 | -34.29721 | 150.39354 | 21679 ft | 357 kts | 64° |
| 2026-04-23 11:40 | -34.28539 | 150.41991 | 21207 ft | 355 kts | 64° |
| 2026-04-23 11:40 | -34.27366 | 150.44609 | 20745 ft | 352 kts | 64° |
| 2026-04-23 11:40 | -34.26208 | 150.47202 | 20219 ft | 342 kts | 64° |
| 2026-04-23 11:41 | -34.25079 | 150.49734 | 18551 ft | 345 kts | 64° |
| 2026-04-23 11:41 | -34.23949 | 150.52265 | 17098 ft | 338 kts | 64° |
| 2026-04-23 11:41 | -34.22846 | 150.54722 | 15767 ft | 328 kts | 64° |
| 2026-04-23 11:41 | -34.21770 | 150.57119 | 14497 ft | 319 kts | 64° |
| 2026-04-23 11:42 | -34.20703 | 150.59501 | 14069 ft | 318 kts | 64° |
| 2026-04-23 11:42 | -34.19670 | 150.61802 | 13703 ft | 312 kts | 65° |
| 2026-04-23 11:42 | -34.18640 | 150.64094 | 13293 ft | 308 kts | 65° |
| 2026-04-23 11:42 | -34.17623 | 150.66358 | 12879 ft | 305 kts | 64° |
| 2026-04-23 11:43 | -34.16278 | 150.68322 | 12467 ft | 310 kts | 38° |
| 2026-04-23 11:43 | -34.14255 | 150.69228 | 12059 ft | 316 kts | 7° |
| 2026-04-23 11:43 | -34.12058 | 150.69054 | 11654 ft | 317 kts | 353° |
| 2026-04-23 11:43 | -34.09884 | 150.68718 | 11245 ft | 312 kts | 8° |
| 2026-04-23 11:44 | -34.07870 | 150.69463 | 10973 ft | 298 kts | 30° |
| 2026-04-23 11:44 | -34.06097 | 150.70703 | 10673 ft | 292 kts | 36° |
| 2026-04-23 11:44 | -34.04415 | 150.72037 | 10352 ft | 287 kts | 37° |
| 2026-04-23 11:44 | -34.02771 | 150.73380 | 10022 ft | 284 kts | 37° |
| 2026-04-23 11:45 | -34.01178 | 150.74693 | 9700 ft | 274 kts | 37° |
| 2026-04-23 11:45 | -33.99645 | 150.76038 | 9399 ft | 276 kts | 43° |
| 2026-04-23 11:45 | -33.98225 | 150.77594 | 9104 ft | 274 kts | 46° |
| 2026-04-23 11:45 | -33.96867 | 150.79188 | 8777 ft | 271 kts | 47° |
| 2026-04-23 11:46 | -33.95533 | 150.80786 | 8454 ft | 269 kts | 47° |
| 2026-04-23 11:46 | -33.94246 | 150.82336 | 8120 ft | 252 kts | 47° |
| 2026-04-23 11:46 | -33.93038 | 150.83793 | 7796 ft | 243 kts | 47° |
| 2026-04-23 11:46 | -33.91844 | 150.85237 | 7535 ft | 243 kts | 47° |
| 2026-04-23 11:47 | -33.90663 | 150.86669 | 7340 ft | 240 kts | 47° |
| 2026-04-23 11:47 | -33.89480 | 150.88108 | 6996 ft | 242 kts | 47° |
| 2026-04-23 11:47 | -33.88295 | 150.89557 | 6675 ft | 243 kts | 47° |
| 2026-04-23 11:47 | -33.87152 | 150.90958 | 6377 ft | 230 kts | 47° |
| 2026-04-23 11:48 | -33.86055 | 150.92305 | 6133 ft | 225 kts | 47° |
| 2026-04-23 11:48 | -33.84962 | 150.93650 | 5874 ft | 225 kts | 47° |
| 2026-04-23 11:48 | -33.83868 | 150.94999 | 5598 ft | 225 kts | 47° |
| 2026-04-23 11:48 | -33.82773 | 150.96354 | 5331 ft | 225 kts | 47° |
| 2026-04-23 11:49 | -33.81677 | 150.97704 | 5056 ft | 226 kts | 47° |
| 2026-04-23 11:49 | -33.80575 | 150.99057 | 4788 ft | 226 kts | 47° |
| 2026-04-23 11:49 | -33.79473 | 151.00406 | 4511 ft | 226 kts | 47° |
| 2026-04-23 11:49 | -33.78373 | 151.01750 | 4280 ft | 223 kts | 47° |
| 2026-04-23 11:50 | -33.77320 | 151.03026 | 4321 ft | 201 kts | 47° |
| 2026-04-23 11:50 | -33.76599 | 151.04270 | 4312 ft | 168 kts | 69° |
| 2026-04-23 11:50 | -33.76201 | 151.05518 | 4277 ft | 157 kts | 72° |
| 2026-04-23 11:50 | -33.75834 | 151.06734 | 4254 ft | 152 kts | 73° |
| 2026-04-23 11:51 | -33.75564 | 151.07966 | 4226 ft | 153 kts | 79° |
| 2026-04-23 11:51 | -33.75412 | 151.09214 | 4160 ft | 149 kts | 92° |
| 2026-04-23 11:51 | -33.75328 | 151.10465 | 4104 ft | 152 kts | 83° |
| 2026-04-23 11:51 | -33.75387 | 151.11705 | 4012 ft | 150 kts | 111° |
| 2026-04-23 11:52 | -33.76013 | 151.12697 | 3822 ft | 151 kts | 145° |
| 2026-04-23 11:52 | -33.76986 | 151.13117 | 3629 ft | 152 kts | 165° |
| 2026-04-23 11:52 | -33.78017 | 151.13371 | 3459 ft | 147 kts | 165° |
| 2026-04-23 11:52 | -33.79036 | 151.13632 | 3460 ft | 151 kts | 165° |
| 2026-04-23 11:53 | -33.80045 | 151.13889 | 3466 ft | 153 kts | 165° |
| 2026-04-23 11:53 | -33.81087 | 151.14155 | 3406 ft | 153 kts | 166° |
| 2026-04-23 11:53 | -33.82101 | 151.14414 | 3279 ft | 148 kts | 165° |
| 2026-04-23 11:53 | -33.83135 | 151.14678 | 3164 ft | 149 kts | 165° |
| 2026-04-23 11:54 | -33.84130 | 151.14931 | 3035 ft | 143 kts | 165° |
| 2026-04-23 11:54 | -33.85084 | 151.15172 | 3006 ft | 141 kts | 166° |
| 2026-04-23 11:54 | -33.86041 | 151.15416 | 2991 ft | 141 kts | 165° |
| 2026-04-23 11:54 | -33.86995 | 151.15659 | 2985 ft | 140 kts | 165° |
| 2026-04-23 11:55 | -33.87950 | 151.15904 | 2988 ft | 142 kts | 165° |
| 2026-04-23 11:55 | -33.88923 | 151.16153 | 2906 ft | 149 kts | 165° |
| 2026-04-23 11:55 | -33.89967 | 151.16413 | 2725 ft | 158 kts | 165° |
| 2026-04-23 11:55 | -33.91154 | 151.16566 | 2885 ft | 186 kts | 194° |
| 2026-04-23 11:56 | -33.92373 | 151.15880 | 3012 ft | 199 kts | 201° |
| 2026-04-23 11:56 | -33.93645 | 151.15297 | 3023 ft | 196 kts | 179° |
| 2026-04-23 11:56 | -33.94884 | 151.15814 | 3024 ft | 190 kts | 132° |
| 2026-04-23 11:56 | -33.95914 | 151.16743 | 3045 ft | 195 kts | 165° |
| 2026-04-23 11:57 | -33.97253 | 151.16584 | 3017 ft | 198 kts | 195° |
| 2026-04-23 11:57 | -33.98500 | 151.15874 | 3013 ft | 201 kts | 223° |
| 2026-04-23 11:57 | -33.99084 | 151.14347 | 3025 ft | 209 kts | 269° |
| 2026-04-23 11:57 | -33.98585 | 151.12747 | 3022 ft | 210 kts | 317° |
| 2026-04-23 11:58 | -33.97483 | 151.11613 | 3017 ft | 208 kts | 315° |
| 2026-04-23 11:58 | -33.96486 | 151.10336 | 3007 ft | 209 kts | 313° |
| 2026-04-23 11:58 | -33.95506 | 151.09038 | 3009 ft | 209 kts | 313° |
| 2026-04-23 11:58 | -33.94554 | 151.07718 | 3010 ft | 208 kts | 314° |
| 2026-04-23 11:59 | -33.93354 | 151.06812 | 3006 ft | 208 kts | 339° |
| 2026-04-23 11:59 | -33.92008 | 151.06199 | 3011 ft | 205 kts | 342° |
| 2026-04-23 11:59 | -33.90650 | 151.05629 | 3002 ft | 208 kts | 343° |
| 2026-04-23 11:59 | -33.89294 | 151.05064 | 3008 ft | 207 kts | 343° |
| 2026-04-23 12:00 | -33.87935 | 151.04496 | 3007 ft | 207 kts | 343° |
| 2026-04-23 12:00 | -33.86573 | 151.03925 | 3010 ft | 207 kts | 343° |
| 2026-04-23 12:00 | -33.85215 | 151.03351 | 3014 ft | 207 kts | 342° |
| 2026-04-23 12:00 | -33.83848 | 151.02768 | 3011 ft | 208 kts | 343° |
| 2026-04-23 12:01 | -33.82574 | 151.02218 | 3010 ft | 182 kts | 342° |
| 2026-04-23 12:01 | -33.81445 | 151.01721 | 3000 ft | 168 kts | 342° |
| 2026-04-23 12:01 | -33.80352 | 151.01238 | 2993 ft | 166 kts | 342° |
| 2026-04-23 12:01 | -33.79250 | 151.00890 | 2964 ft | 162 kts | 12° |
| 2026-04-23 12:02 | -33.78287 | 151.01485 | 3007 ft | 158 kts | 41° |
| 2026-04-23 12:02 | -33.77438 | 151.02277 | 3014 ft | 157 kts | 43° |
| 2026-04-23 12:02 | -33.76593 | 151.03084 | 3012 ft | 155 kts | 43° |
| 2026-04-23 12:02 | -33.75969 | 151.04080 | 3024 ft | 150 kts | 70° |
| 2026-04-23 12:03 | -33.75586 | 151.05253 | 3015 ft | 152 kts | 72° |
| 2026-04-23 12:03 | -33.75294 | 151.06461 | 3015 ft | 150 kts | 87° |
| 2026-04-23 12:03 | -33.75289 | 151.07696 | 3007 ft | 147 kts | 92° |
| 2026-04-23 12:03 | -33.75191 | 151.08935 | 3015 ft | 150 kts | 84° |
| 2026-04-23 12:04 | -33.75017 | 151.10172 | 3009 ft | 150 kts | 82° |
| 2026-04-23 12:04 | -33.74976 | 151.11400 | 3008 ft | 147 kts | 105° |
| 2026-04-23 12:04 | -33.75491 | 151.12439 | 3003 ft | 147 kts | 137° |
| 2026-04-23 12:04 | -33.76396 | 151.12965 | 3004 ft | 148 kts | 165° |
| 2026-04-23 12:05 | -33.77415 | 151.13221 | 3009 ft | 150 kts | 165° |
| 2026-04-23 12:05 | -33.78435 | 151.13481 | 2864 ft | 149 kts | 165° |
| 2026-04-23 12:05 | -33.79444 | 151.13738 | 2688 ft | 147 kts | 165° |
| 2026-04-23 12:05 | -33.80456 | 151.13996 | 2501 ft | 148 kts | 165° |
| 2026-04-23 12:06 | -33.81465 | 151.14254 | 2309 ft | 148 kts | 166° |
| 2026-04-23 12:06 | -33.82475 | 151.14508 | 2116 ft | 148 kts | 166° |
| 2026-04-23 12:06 | -33.84481 | 151.15018 | 1716 ft | 148 kts | 165° |
| 2026-04-23 12:07 | -33.85478 | 151.15273 | 1522 ft | 143 kts | 167° |
| 2026-04-23 12:07 | -33.86473 | 151.15527 | 1342 ft | 145 kts | 166° |
| 2026-04-23 12:07 | -33.87470 | 151.15782 | 1160 ft | 145 kts | 166° |
| 2026-04-23 12:07 | -33.88452 | 151.16033 | 961 ft | 148 kts | 166° |
| 2026-04-23 12:08 | -33.89442 | 151.16279 | 775 ft | 149 kts | 166° |
| 2026-04-23 12:08 | -33.90427 | 151.16531 | 578 ft | 145 kts | 166° |
| 2026-04-23 12:08 | -33.91386 | 151.16776 | 375 ft | 143 kts | 166° |
| 2026-04-23 12:08 | -33.92346 | 151.17023 | 191 ft | 140 kts | 167° |
| 2026-04-23 12:09 | -33.93306 | 151.17255 | 98 ft | 137 kts | 167° |
| 2026-04-23 12:09 | -33.94122 | 151.17460 | 23 ft | 93 kts | 169° |
| 2026-04-23 12:09 | -33.94577 | 151.17585 | 29 ft | 54 kts | 169° |
| 2026-04-23 12:09 | -33.94859 | 151.17645 | 27 ft | 37 kts | 177° |
| 2026-04-23 12:10 | -33.95102 | 151.17618 | 20 ft | 30 kts | 192° |
| 2026-04-23 12:10 | -33.95137 | 151.17549 | 20 ft | 4 kts | 295° |
| 2026-04-23 12:10 | -33.95117 | 151.17520 | 21 ft | 3 kts | 323° |
| 2026-04-23 12:10 | -33.95098 | 151.17516 | 21 ft | 6 kts | 349° |
| 2026-04-23 12:11 | -33.95041 | 151.17501 | 21 ft | 7 kts | 349° |
| 2026-04-23 12:11 | -33.94955 | 151.17481 | 21 ft | 18 kts | 348° |
| 2026-04-23 12:11 | -33.94804 | 151.17444 | 25 ft | 24 kts | 348° |
| 2026-04-23 12:11 | -33.94749 | 151.17430 | 27 ft | 3 kts | 348° |
| 2026-04-23 12:12 | -33.94748 | 151.17429 | 27 ft | 2 kts | 348° |
| 2026-04-23 12:12 | -33.94714 | 151.17418 | 26 ft | 8 kts | 347° |
| 2026-04-23 12:12 | -33.94667 | 151.17403 | 27 ft | 8 kts | 338° |
| 2026-04-23 12:13 | -33.94638 | 151.17395 | 27 ft | 0 kts | 359° |
| 2026-04-23 12:13 | -33.94604 | 151.17388 | 27 ft | 10 kts | 349° |
| 2026-04-23 12:13 | -33.94532 | 151.17361 | 27 ft | 0 kts | 338° |
| 2026-04-23 12:13 | -33.94511 | 151.17356 | 27 ft | 6 kts | 349° |
| 2026-04-23 12:14 | -33.94453 | 151.17341 | 27 ft | 8 kts | 348° |
| 2026-04-23 12:14 | -33.94398 | 151.17326 | 27 ft | 9 kts | 346° |
| 2026-04-23 12:14 | -33.94333 | 151.17305 | 29 ft | 11 kts | 347° |
| 2026-04-23 12:14 | -33.94235 | 151.17292 | 25 ft | 16 kts | 354° |
| 2026-04-23 12:15 | -33.94124 | 151.17261 | 25 ft | 10 kts | 348° |
| 2026-04-23 12:15 | -33.94049 | 151.17251 | 24 ft | 12 kts | 349° |
| 2026-04-23 12:15 | -33.93979 | 151.17218 | 21 ft | 9 kts | 304° |
| 2026-04-23 12:15 | -33.93983 | 151.17143 | 22 ft | 9 kts | 252° |
| 2026-04-23 12:16 | -33.94004 | 151.17070 | 23 ft | 10 kts | 246° |
| 2026-04-23 12:16 | -33.94019 | 151.17023 | 24 ft | 6 kts | 248° |
| 2026-04-23 12:16 | -33.94035 | 151.16951 | 22 ft | 11 kts | 259° |
| 2026-04-23 12:16 | -33.94057 | 151.16853 | 23 ft | 9 kts | 270° |
| 2026-04-23 12:17 | -33.94035 | 151.16809 | 22 ft | 4 kts | 332° |
| 2026-04-23 12:17 | -33.94000 | 151.16795 | 24 ft | 7 kts | 339° |
| 2026-04-23 12:17 | -33.93973 | 151.16792 | 25 ft | 0 kts | 4° |
| 2026-04-23 12:17 | -33.93958 | 151.16786 | 22 ft | 6 kts | 341° |
| 2026-04-23 12:18 | -33.93926 | 151.16767 | 24 ft | 3 kts | 314° |
| 2026-04-23 12:18 | -33.93925 | 151.16752 | 23 ft | 3 kts | 266° |
| 2026-04-23 12:18 | -33.93929 | 151.16714 | 22 ft | 4 kts | 263° |
| 2026-04-23 12:18 | -33.93931 | 151.16699 | 22 ft | 2 kts | 261° |
| 2026-04-23 12:19 | -33.93931 | 151.16698 | 22 ft | 0 kts | 261° |